sensor_id;sensor_type;location;lat;lon;timestamp;P1;durP1;ratioP1;P2;durP2;ratioP2
18929;SDS011;43305;52.186;5.598;2022-09-09T00:01:54;3.63;;;1.60;;
18929;SDS011;43305;52.186;5.598;2022-09-09T00:04:27;4.15;;;1.83;;
18929;SDS011;43305;52.186;5.598;2022-09-09T00:06:59;4.95;;;1.42;;
18929;SDS011;43305;52.186;5.598;2022-09-09T00:09:30;3.30;;;1.60;;
18929;SDS011;43305;52.186;5.598;2022-09-09T00:12:12;2.97;;;1.27;;
18929;SDS011;43305;52.186;5.598;2022-09-09T00:14:45;4.03;;;1.50;;
18929;SDS011;43305;52.186;5.598;2022-09-09T00:17:23;4.05;;;1.30;;
18929;SDS011;43305;52.186;5.598;2022-09-09T00:20:03;2.50;;;1.45;;
18929;SDS011;43305;52.186;5.598;2022-09-09T00:22:53;3.95;;;1.50;;
18929;SDS011;43305;52.186;5.598;2022-09-09T00:25:42;3.70;;;1.55;;
18929;SDS011;43305;52.186;5.598;2022-09-09T00:28:23;3.40;;;1.58;;
18929;SDS011;43305;52.186;5.598;2022-09-09T00:30:55;5.20;;;1.50;;
18929;SDS011;43305;52.186;5.598;2022-09-09T00:33:29;2.58;;;1.67;;
18929;SDS011;43305;52.186;5.598;2022-09-09T00:35:59;3.50;;;2.20;;
18929;SDS011;43305;52.186;5.598;2022-09-09T00:38:35;3.40;;;2.00;;
18929;SDS011;43305;52.186;5.598;2022-09-09T00:41:07;2.83;;;1.80;;
18929;SDS011;43305;52.186;5.598;2022-09-09T00:43:46;4.43;;;2.10;;
18929;SDS011;43305;52.186;5.598;2022-09-09T00:49:20;5.22;;;2.28;;
18929;SDS011;43305;52.186;5.598;2022-09-09T00:51:58;4.53;;;2.10;;
18929;SDS011;43305;52.186;5.598;2022-09-09T00:54:44;4.97;;;2.33;;
18929;SDS011;43305;52.186;5.598;2022-09-09T00:57:27;6.15;;;2.80;;
18929;SDS011;43305;52.186;5.598;2022-09-09T01:00:16;8.23;;;3.05;;
18929;SDS011;43305;52.186;5.598;2022-09-09T01:02:49;6.30;;;3.17;;
18929;SDS011;43305;52.186;5.598;2022-09-09T01:05:25;5.10;;;3.75;;
18929;SDS011;43305;52.186;5.598;2022-09-09T01:08:01;7.32;;;3.75;;
18929;SDS011;43305;52.186;5.598;2022-09-09T01:10:38;6.70;;;3.70;;
18929;SDS011;43305;52.186;5.598;2022-09-09T01:13:14;5.13;;;3.45;;
18929;SDS011;43305;52.186;5.598;2022-09-09T01:15:50;5.13;;;3.63;;
18929;SDS011;43305;52.186;5.598;2022-09-09T01:18:22;8.07;;;4.13;;
18929;SDS011;43305;52.186;5.598;2022-09-09T01:21:02;5.90;;;3.95;;
18929;SDS011;43305;52.186;5.598;2022-09-09T01:23:38;6.68;;;4.10;;
18929;SDS011;43305;52.186;5.598;2022-09-09T01:26:17;6.55;;;4.55;;
18929;SDS011;43305;52.186;5.598;2022-09-09T01:28:55;8.50;;;4.30;;
18929;SDS011;43305;52.186;5.598;2022-09-09T01:31:26;5.93;;;3.95;;
18929;SDS011;43305;52.186;5.598;2022-09-09T01:33:56;7.13;;;4.43;;
18929;SDS011;43305;52.186;5.598;2022-09-09T01:36:25;7.32;;;4.20;;
18929;SDS011;43305;52.186;5.598;2022-09-09T01:38:58;6.88;;;4.10;;
18929;SDS011;43305;52.186;5.598;2022-09-09T01:41:27;6.55;;;4.00;;
18929;SDS011;43305;52.186;5.598;2022-09-09T01:43:55;7.35;;;4.07;;
18929;SDS011;43305;52.186;5.598;2022-09-09T01:46:26;7.20;;;4.50;;
18929;SDS011;43305;52.186;5.598;2022-09-09T01:48:55;5.97;;;3.75;;
18929;SDS011;43305;52.186;5.598;2022-09-09T01:51:23;5.95;;;4.13;;
18929;SDS011;43305;52.186;5.598;2022-09-09T01:53:53;6.97;;;4.13;;
18929;SDS011;43305;52.186;5.598;2022-09-09T01:56:30;6.20;;;4.18;;
18929;SDS011;43305;52.186;5.598;2022-09-09T01:59:13;6.93;;;4.13;;
18929;SDS011;43305;52.186;5.598;2022-09-09T02:01:53;6.53;;;4.30;;
18929;SDS011;43305;52.186;5.598;2022-09-09T02:04:34;7.40;;;4.28;;
18929;SDS011;43305;52.186;5.598;2022-09-09T02:07:06;6.15;;;4.25;;
18929;SDS011;43305;52.186;5.598;2022-09-09T02:09:42;7.55;;;4.07;;
18929;SDS011;43305;52.186;5.598;2022-09-09T02:12:19;7.53;;;4.25;;
18929;SDS011;43305;52.186;5.598;2022-09-09T02:14:50;7.70;;;4.22;;
18929;SDS011;43305;52.186;5.598;2022-09-09T02:17:22;6.40;;;4.10;;
18929;SDS011;43305;52.186;5.598;2022-09-09T02:19:56;5.55;;;3.85;;
18929;SDS011;43305;52.186;5.598;2022-09-09T02:22:28;6.97;;;4.47;;
18929;SDS011;43305;52.186;5.598;2022-09-09T02:24:59;6.05;;;3.97;;
18929;SDS011;43305;52.186;5.598;2022-09-09T02:27:29;7.85;;;4.43;;
18929;SDS011;43305;52.186;5.598;2022-09-09T02:29:56;8.00;;;4.63;;
18929;SDS011;43305;52.186;5.598;2022-09-09T02:32:27;6.38;;;4.35;;
18929;SDS011;43305;52.186;5.598;2022-09-09T02:35:03;6.47;;;4.60;;
18929;SDS011;43305;52.186;5.598;2022-09-09T02:37:38;8.20;;;4.97;;
18929;SDS011;43305;52.186;5.598;2022-09-09T02:40:11;9.60;;;4.97;;
18929;SDS011;43305;52.186;5.598;2022-09-09T02:42:41;10.65;;;5.38;;
18929;SDS011;43305;52.186;5.598;2022-09-09T02:45:11;10.13;;;5.60;;
18929;SDS011;43305;52.186;5.598;2022-09-09T02:47:45;7.13;;;5.43;;
18929;SDS011;43305;52.186;5.598;2022-09-09T02:50:19;10.05;;;5.97;;
18929;SDS011;43305;52.186;5.598;2022-09-09T02:52:59;12.00;;;5.88;;
18929;SDS011;43305;52.186;5.598;2022-09-09T02:55:39;9.07;;;5.85;;
18929;SDS011;43305;52.186;5.598;2022-09-09T02:58:15;10.80;;;5.75;;
18929;SDS011;43305;52.186;5.598;2022-09-09T03:00:45;7.70;;;5.32;;
18929;SDS011;43305;52.186;5.598;2022-09-09T03:03:13;9.73;;;5.85;;
18929;SDS011;43305;52.186;5.598;2022-09-09T03:05:41;12.27;;;5.72;;
18929;SDS011;43305;52.186;5.598;2022-09-09T03:08:18;9.55;;;5.80;;
18929;SDS011;43305;52.186;5.598;2022-09-09T03:10:58;9.55;;;5.88;;
18929;SDS011;43305;52.186;5.598;2022-09-09T03:13:33;9.85;;;5.47;;
18929;SDS011;43305;52.186;5.598;2022-09-09T03:16:03;9.80;;;5.70;;
18929;SDS011;43305;52.186;5.598;2022-09-09T03:18:30;11.07;;;5.55;;
18929;SDS011;43305;52.186;5.598;2022-09-09T03:20:59;9.40;;;5.25;;
18929;SDS011;43305;52.186;5.598;2022-09-09T03:23:36;8.52;;;4.82;;
18929;SDS011;43305;52.186;5.598;2022-09-09T03:26:05;9.55;;;6.07;;
18929;SDS011;43305;52.186;5.598;2022-09-09T03:28:37;9.18;;;5.63;;
18929;SDS011;43305;52.186;5.598;2022-09-09T03:31:08;9.43;;;6.03;;
18929;SDS011;43305;52.186;5.598;2022-09-09T03:33:35;9.98;;;5.93;;
18929;SDS011;43305;52.186;5.598;2022-09-09T03:36:10;9.95;;;5.93;;
18929;SDS011;43305;52.186;5.598;2022-09-09T03:38:37;12.30;;;5.88;;
18929;SDS011;43305;52.186;5.598;2022-09-09T03:41:04;10.02;;;5.80;;
18929;SDS011;43305;52.186;5.598;2022-09-09T03:43:31;7.65;;;5.50;;
18929;SDS011;43305;52.186;5.598;2022-09-09T03:46:01;12.02;;;6.00;;
18929;SDS011;43305;52.186;5.598;2022-09-09T03:48:28;9.60;;;5.78;;
18929;SDS011;43305;52.186;5.598;2022-09-09T03:51:03;11.40;;;6.18;;
18929;SDS011;43305;52.186;5.598;2022-09-09T03:53:33;9.50;;;6.20;;
18929;SDS011;43305;52.186;5.598;2022-09-09T03:56:12;10.15;;;6.03;;
18929;SDS011;43305;52.186;5.598;2022-09-09T03:58:39;9.45;;;5.65;;
18929;SDS011;43305;52.186;5.598;2022-09-09T04:01:17;9.23;;;6.03;;
18929;SDS011;43305;52.186;5.598;2022-09-09T04:03:49;9.98;;;5.88;;
18929;SDS011;43305;52.186;5.598;2022-09-09T04:06:25;10.82;;;5.97;;
18929;SDS011;43305;52.186;5.598;2022-09-09T04:09:10;8.68;;;5.45;;
18929;SDS011;43305;52.186;5.598;2022-09-09T04:11:46;8.85;;;5.80;;
18929;SDS011;43305;52.186;5.598;2022-09-09T04:14:24;10.52;;;5.88;;
18929;SDS011;43305;52.186;5.598;2022-09-09T04:16:55;11.05;;;6.53;;
18929;SDS011;43305;52.186;5.598;2022-09-09T04:19:25;11.93;;;5.97;;
18929;SDS011;43305;52.186;5.598;2022-09-09T04:21:52;11.38;;;6.13;;
18929;SDS011;43305;52.186;5.598;2022-09-09T04:24:23;10.85;;;6.38;;
18929;SDS011;43305;52.186;5.598;2022-09-09T04:26:52;11.77;;;6.78;;
18929;SDS011;43305;52.186;5.598;2022-09-09T04:29:20;12.10;;;7.20;;
18929;SDS011;43305;52.186;5.598;2022-09-09T04:31:47;15.02;;;6.30;;
18929;SDS011;43305;52.186;5.598;2022-09-09T04:34:20;12.10;;;6.82;;
18929;SDS011;43305;52.186;5.598;2022-09-09T04:36:46;8.32;;;5.78;;
18929;SDS011;43305;52.186;5.598;2022-09-09T04:39:19;10.77;;;6.43;;
18929;SDS011;43305;52.186;5.598;2022-09-09T04:41:46;8.95;;;5.97;;
18929;SDS011;43305;52.186;5.598;2022-09-09T04:44:15;13.63;;;6.65;;
18929;SDS011;43305;52.186;5.598;2022-09-09T04:46:51;10.20;;;6.43;;
18929;SDS011;43305;52.186;5.598;2022-09-09T04:49:19;11.65;;;6.45;;
18929;SDS011;43305;52.186;5.598;2022-09-09T04:51:50;11.18;;;6.15;;
18929;SDS011;43305;52.186;5.598;2022-09-09T04:54:17;10.93;;;6.20;;
18929;SDS011;43305;52.186;5.598;2022-09-09T04:56:44;10.23;;;6.30;;
18929;SDS011;43305;52.186;5.598;2022-09-09T04:59:19;11.60;;;5.90;;
18929;SDS011;43305;52.186;5.598;2022-09-09T05:01:53;12.68;;;5.80;;
18929;SDS011;43305;52.186;5.598;2022-09-09T05:04:22;11.75;;;5.72;;
18929;SDS011;43305;52.186;5.598;2022-09-09T05:06:49;10.00;;;5.28;;
18929;SDS011;43305;52.186;5.598;2022-09-09T05:09:20;11.52;;;5.80;;
18929;SDS011;43305;52.186;5.598;2022-09-09T05:11:56;9.13;;;5.28;;
18929;SDS011;43305;52.186;5.598;2022-09-09T05:14:25;13.50;;;5.70;;
18929;SDS011;43305;52.186;5.598;2022-09-09T05:16:56;10.85;;;5.75;;
18929;SDS011;43305;52.186;5.598;2022-09-09T05:19:25;12.68;;;5.95;;
18929;SDS011;43305;52.186;5.598;2022-09-09T05:21:52;10.43;;;5.43;;
18929;SDS011;43305;52.186;5.598;2022-09-09T05:24:19;14.85;;;5.78;;
18929;SDS011;43305;52.186;5.598;2022-09-09T05:26:51;9.70;;;5.72;;
18929;SDS011;43305;52.186;5.598;2022-09-09T05:29:18;9.07;;;5.20;;
18929;SDS011;43305;52.186;5.598;2022-09-09T05:31:50;12.57;;;5.65;;
18929;SDS011;43305;52.186;5.598;2022-09-09T05:34:19;13.32;;;5.53;;
18929;SDS011;43305;52.186;5.598;2022-09-09T05:36:49;10.38;;;5.57;;
18929;SDS011;43305;52.186;5.598;2022-09-09T05:39:20;9.38;;;4.75;;
18929;SDS011;43305;52.186;5.598;2022-09-09T05:41:52;8.32;;;5.00;;
18929;SDS011;43305;52.186;5.598;2022-09-09T05:44:18;12.98;;;5.13;;
18929;SDS011;43305;52.186;5.598;2022-09-09T05:46:50;10.57;;;5.20;;
18929;SDS011;43305;52.186;5.598;2022-09-09T05:49:25;9.10;;;5.10;;
18929;SDS011;43305;52.186;5.598;2022-09-09T05:51:56;11.70;;;4.90;;
18929;SDS011;43305;52.186;5.598;2022-09-09T05:54:25;12.35;;;5.05;;
18929;SDS011;43305;52.186;5.598;2022-09-09T05:56:54;7.95;;;4.38;;
18929;SDS011;43305;52.186;5.598;2022-09-09T05:59:29;11.65;;;4.90;;
18929;SDS011;43305;52.186;5.598;2022-09-09T06:01:57;13.13;;;4.97;;
18929;SDS011;43305;52.186;5.598;2022-09-09T06:04:26;10.82;;;4.68;;
18929;SDS011;43305;52.186;5.598;2022-09-09T06:06:53;8.93;;;4.95;;
18929;SDS011;43305;52.186;5.598;2022-09-09T06:09:20;13.45;;;5.10;;
18929;SDS011;43305;52.186;5.598;2022-09-09T06:11:47;12.48;;;5.13;;
18929;SDS011;43305;52.186;5.598;2022-09-09T06:14:14;16.77;;;4.68;;
18929;SDS011;43305;52.186;5.598;2022-09-09T06:16:46;12.63;;;5.20;;
18929;SDS011;43305;52.186;5.598;2022-09-09T06:19:14;12.77;;;4.35;;
18929;SDS011;43305;52.186;5.598;2022-09-09T06:21:41;10.88;;;4.57;;
18929;SDS011;43305;52.186;5.598;2022-09-09T06:24:11;12.57;;;4.68;;
18929;SDS011;43305;52.186;5.598;2022-09-09T06:26:45;15.07;;;4.90;;
18929;SDS011;43305;52.186;5.598;2022-09-09T06:29:11;12.73;;;4.57;;
18929;SDS011;43305;52.186;5.598;2022-09-09T06:31:38;13.60;;;4.55;;
18929;SDS011;43305;52.186;5.598;2022-09-09T06:34:06;13.45;;;3.95;;
18929;SDS011;43305;52.186;5.598;2022-09-09T06:36:35;10.38;;;4.22;;
18929;SDS011;43305;52.186;5.598;2022-09-09T06:39:03;10.20;;;3.80;;
18929;SDS011;43305;52.186;5.598;2022-09-09T06:41:31;11.52;;;3.97;;
18929;SDS011;43305;52.186;5.598;2022-09-09T06:44:01;8.10;;;3.85;;
18929;SDS011;43305;52.186;5.598;2022-09-09T06:46:29;11.27;;;3.95;;
18929;SDS011;43305;52.186;5.598;2022-09-09T06:48:58;14.93;;;4.15;;
18929;SDS011;43305;52.186;5.598;2022-09-09T06:51:28;12.80;;;3.85;;
18929;SDS011;43305;52.186;5.598;2022-09-09T06:53:56;11.10;;;4.00;;
18929;SDS011;43305;52.186;5.598;2022-09-09T06:56:25;8.95;;;3.75;;
18929;SDS011;43305;52.186;5.598;2022-09-09T06:58:54;13.32;;;3.75;;
18929;SDS011;43305;52.186;5.598;2022-09-09T07:01:31;12.90;;;3.75;;
18929;SDS011;43305;52.186;5.598;2022-09-09T07:03:59;9.73;;;3.40;;
18929;SDS011;43305;52.186;5.598;2022-09-09T07:06:28;9.55;;;3.38;;
18929;SDS011;43305;52.186;5.598;2022-09-09T07:08:58;12.30;;;3.22;;
18929;SDS011;43305;52.186;5.598;2022-09-09T07:11:26;10.52;;;3.40;;
18929;SDS011;43305;52.186;5.598;2022-09-09T07:13:57;10.32;;;3.80;;
18929;SDS011;43305;52.186;5.598;2022-09-09T07:16:25;10.13;;;3.45;;
18929;SDS011;43305;52.186;5.598;2022-09-09T07:19:03;12.55;;;3.78;;
18929;SDS011;43305;52.186;5.598;2022-09-09T07:21:38;11.75;;;3.55;;
18929;SDS011;43305;52.186;5.598;2022-09-09T07:24:09;14.27;;;3.13;;
18929;SDS011;43305;52.186;5.598;2022-09-09T07:26:36;9.23;;;3.10;;
18929;SDS011;43305;52.186;5.598;2022-09-09T07:29:05;9.77;;;2.92;;
18929;SDS011;43305;52.186;5.598;2022-09-09T07:31:40;14.20;;;3.70;;
18929;SDS011;43305;52.186;5.598;2022-09-09T07:36:38;7.35;;;2.85;;
18929;SDS011;43305;52.186;5.598;2022-09-09T07:39:07;9.65;;;3.35;;
18929;SDS011;43305;52.186;5.598;2022-09-09T07:41:35;8.82;;;2.97;;
18929;SDS011;43305;52.186;5.598;2022-09-09T07:44:05;9.93;;;3.17;;
18929;SDS011;43305;52.186;5.598;2022-09-09T07:46:33;10.60;;;2.92;;
18929;SDS011;43305;52.186;5.598;2022-09-09T07:49:02;12.05;;;3.10;;
18929;SDS011;43305;52.186;5.598;2022-09-09T07:51:30;9.50;;;3.30;;
18929;SDS011;43305;52.186;5.598;2022-09-09T07:54:00;8.77;;;2.83;;
18929;SDS011;43305;52.186;5.598;2022-09-09T07:56:28;7.40;;;2.53;;
18929;SDS011;43305;52.186;5.598;2022-09-09T07:58:56;10.32;;;2.72;;
18929;SDS011;43305;52.186;5.598;2022-09-09T08:01:26;10.40;;;2.60;;
18929;SDS011;43305;52.186;5.598;2022-09-09T08:03:55;11.75;;;3.30;;
18929;SDS011;43305;52.186;5.598;2022-09-09T08:06:25;9.93;;;3.03;;
18929;SDS011;43305;52.186;5.598;2022-09-09T08:08:53;10.32;;;2.70;;
18929;SDS011;43305;52.186;5.598;2022-09-09T08:11:21;10.85;;;2.90;;
18929;SDS011;43305;52.186;5.598;2022-09-09T08:13:50;11.73;;;2.75;;
18929;SDS011;43305;52.186;5.598;2022-09-09T08:16:18;9.20;;;2.50;;
18929;SDS011;43305;52.186;5.598;2022-09-09T08:18:47;14.25;;;3.00;;
18929;SDS011;43305;52.186;5.598;2022-09-09T08:21:15;10.75;;;2.83;;
18929;SDS011;43305;52.186;5.598;2022-09-09T08:23:45;10.35;;;2.45;;
18929;SDS011;43305;52.186;5.598;2022-09-09T08:26:14;7.70;;;2.47;;
18929;SDS011;43305;52.186;5.598;2022-09-09T08:28:42;10.43;;;2.33;;
18929;SDS011;43305;52.186;5.598;2022-09-09T08:31:10;12.73;;;2.33;;
18929;SDS011;43305;52.186;5.598;2022-09-09T08:33:38;9.10;;;2.70;;
18929;SDS011;43305;52.186;5.598;2022-09-09T08:36:06;9.40;;;2.33;;
18929;SDS011;43305;52.186;5.598;2022-09-09T08:38:36;11.98;;;2.35;;
18929;SDS011;43305;52.186;5.598;2022-09-09T08:41:09;11.02;;;2.28;;
18929;SDS011;43305;52.186;5.598;2022-09-09T08:43:51;8.05;;;2.40;;
18929;SDS011;43305;52.186;5.598;2022-09-09T08:46:29;10.82;;;2.08;;
18929;SDS011;43305;52.186;5.598;2022-09-09T08:49:06;8.85;;;2.42;;
18929;SDS011;43305;52.186;5.598;2022-09-09T08:51:43;9.73;;;2.40;;
18929;SDS011;43305;52.186;5.598;2022-09-09T08:54:10;8.77;;;2.25;;
18929;SDS011;43305;52.186;5.598;2022-09-09T08:56:38;10.68;;;2.33;;
18929;SDS011;43305;52.186;5.598;2022-09-09T08:59:05;11.80;;;2.35;;
18929;SDS011;43305;52.186;5.598;2022-09-09T09:01:41;5.15;;;2.03;;
18929;SDS011;43305;52.186;5.598;2022-09-09T09:04:21;7.97;;;2.00;;
18929;SDS011;43305;52.186;5.598;2022-09-09T09:06:59;7.30;;;2.05;;
18929;SDS011;43305;52.186;5.598;2022-09-09T09:09:39;9.15;;;2.03;;
18929;SDS011;43305;52.186;5.598;2022-09-09T09:12:15;7.32;;;1.83;;
18929;SDS011;43305;52.186;5.598;2022-09-09T09:14:43;12.10;;;2.30;;
18929;SDS011;43305;52.186;5.598;2022-09-09T09:17:14;9.63;;;2.10;;
18929;SDS011;43305;52.186;5.598;2022-09-09T09:19:43;14.10;;;2.85;;
18929;SDS011;43305;52.186;5.598;2022-09-09T09:22:14;10.00;;;2.03;;
18929;SDS011;43305;52.186;5.598;2022-09-09T09:24:45;6.25;;;1.83;;
18929;SDS011;43305;52.186;5.598;2022-09-09T09:27:21;7.55;;;2.13;;
18929;SDS011;43305;52.186;5.598;2022-09-09T09:29:59;7.07;;;2.03;;
18929;SDS011;43305;52.186;5.598;2022-09-09T09:32:33;9.73;;;2.25;;
18929;SDS011;43305;52.186;5.598;2022-09-09T09:35:04;34.67;;;4.55;;
18929;SDS011;43305;52.186;5.598;2022-09-09T09:37:37;10.73;;;2.35;;
18929;SDS011;43305;52.186;5.598;2022-09-09T09:40:09;9.98;;;2.30;;
18929;SDS011;43305;52.186;5.598;2022-09-09T09:42:46;8.95;;;2.03;;
18929;SDS011;43305;52.186;5.598;2022-09-09T09:45:16;5.15;;;1.83;;
18929;SDS011;43305;52.186;5.598;2022-09-09T09:47:57;8.75;;;1.65;;
18929;SDS011;43305;52.186;5.598;2022-09-09T09:50:25;9.43;;;1.80;;
18929;SDS011;43305;52.186;5.598;2022-09-09T09:52:53;9.23;;;1.80;;
18929;SDS011;43305;52.186;5.598;2022-09-09T09:55:22;16.83;;;3.17;;
18929;SDS011;43305;52.186;5.598;2022-09-09T09:57:51;10.10;;;2.22;;
18929;SDS011;43305;52.186;5.598;2022-09-09T10:00:22;18.00;;;2.80;;
18929;SDS011;43305;52.186;5.598;2022-09-09T10:02:49;10.25;;;2.08;;
18929;SDS011;43305;52.186;5.598;2022-09-09T10:05:23;14.40;;;2.10;;
18929;SDS011;43305;52.186;5.598;2022-09-09T10:10:40;8.35;;;2.08;;
18929;SDS011;43305;52.186;5.598;2022-09-09T10:13:18;12.25;;;2.38;;
18929;SDS011;43305;52.186;5.598;2022-09-09T10:15:53;7.22;;;1.70;;
18929;SDS011;43305;52.186;5.598;2022-09-09T10:18:36;8.50;;;2.03;;
18929;SDS011;43305;52.186;5.598;2022-09-09T10:21:14;8.45;;;1.90;;
18929;SDS011;43305;52.186;5.598;2022-09-09T10:23:55;9.25;;;1.83;;
18929;SDS011;43305;52.186;5.598;2022-09-09T10:26:40;13.27;;;2.25;;
18929;SDS011;43305;52.186;5.598;2022-09-09T10:32:08;12.13;;;2.20;;
18929;SDS011;43305;52.186;5.598;2022-09-09T10:34:51;8.48;;;2.17;;
18929;SDS011;43305;52.186;5.598;2022-09-09T10:37:26;10.10;;;2.38;;
18929;SDS011;43305;52.186;5.598;2022-09-09T10:40:17;10.40;;;2.25;;
18929;SDS011;43305;52.186;5.598;2022-09-09T10:42:56;11.68;;;2.63;;
18929;SDS011;43305;52.186;5.598;2022-09-09T10:45:34;6.72;;;1.90;;
18929;SDS011;43305;52.186;5.598;2022-09-09T10:48:14;9.93;;;1.98;;
18929;SDS011;43305;52.186;5.598;2022-09-09T10:51:02;7.95;;;2.00;;
18929;SDS011;43305;52.186;5.598;2022-09-09T10:53:46;10.45;;;2.15;;
18929;SDS011;43305;52.186;5.598;2022-09-09T10:56:24;9.40;;;1.95;;
18929;SDS011;43305;52.186;5.598;2022-09-09T10:58:55;9.38;;;2.15;;
18929;SDS011;43305;52.186;5.598;2022-09-09T11:01:27;6.38;;;2.25;;
18929;SDS011;43305;52.186;5.598;2022-09-09T11:03:59;4.95;;;1.67;;
18929;SDS011;43305;52.186;5.598;2022-09-09T11:06:30;5.50;;;1.70;;
18929;SDS011;43305;52.186;5.598;2022-09-09T11:09:02;8.02;;;2.30;;
18929;SDS011;43305;52.186;5.598;2022-09-09T11:11:34;7.95;;;2.30;;
18929;SDS011;43305;52.186;5.598;2022-09-09T11:14:09;10.00;;;2.60;;
18929;SDS011;43305;52.186;5.598;2022-09-09T11:16:44;9.48;;;2.60;;
18929;SDS011;43305;52.186;5.598;2022-09-09T11:19:17;8.07;;;2.53;;
18929;SDS011;43305;52.186;5.598;2022-09-09T11:21:52;6.13;;;2.60;;
18929;SDS011;43305;52.186;5.598;2022-09-09T11:24:24;7.47;;;2.55;;
18929;SDS011;43305;52.186;5.598;2022-09-09T11:26:57;9.15;;;2.90;;
18929;SDS011;43305;52.186;5.598;2022-09-09T11:29:36;8.32;;;2.90;;
18929;SDS011;43305;52.186;5.598;2022-09-09T11:32:26;11.63;;;3.30;;
18929;SDS011;43305;52.186;5.598;2022-09-09T11:35:08;13.95;;;3.35;;
18929;SDS011;43305;52.186;5.598;2022-09-09T11:37:53;10.52;;;3.17;;
18929;SDS011;43305;52.186;5.598;2022-09-09T11:40:30;6.13;;;2.80;;
18929;SDS011;43305;52.186;5.598;2022-09-09T11:43:01;9.05;;;3.10;;
18929;SDS011;43305;52.186;5.598;2022-09-09T11:45:31;11.45;;;3.08;;
18929;SDS011;43305;52.186;5.598;2022-09-09T11:48:02;8.25;;;2.47;;
18929;SDS011;43305;52.186;5.598;2022-09-09T11:50:32;10.75;;;2.75;;
18929;SDS011;43305;52.186;5.598;2022-09-09T11:58:40;6.35;;;2.47;;
18929;SDS011;43305;52.186;5.598;2022-09-09T12:01:16;10.00;;;2.47;;
18929;SDS011;43305;52.186;5.598;2022-09-09T12:06:54;9.05;;;2.75;;
18929;SDS011;43305;52.186;5.598;2022-09-09T12:09:29;9.63;;;2.63;;
18929;SDS011;43305;52.186;5.598;2022-09-09T12:15:01;9.13;;;2.70;;
18929;SDS011;43305;52.186;5.598;2022-09-09T12:17:46;7.80;;;2.88;;
18929;SDS011;43305;52.186;5.598;2022-09-09T12:20:17;11.90;;;2.67;;
18929;SDS011;43305;52.186;5.598;2022-09-09T12:22:56;6.38;;;2.17;;
18929;SDS011;43305;52.186;5.598;2022-09-09T12:25:47;8.23;;;2.47;;
18929;SDS011;43305;52.186;5.598;2022-09-09T12:28:36;8.27;;;2.30;;
18929;SDS011;43305;52.186;5.598;2022-09-09T12:31:14;5.22;;;2.00;;
18929;SDS011;43305;52.186;5.598;2022-09-09T12:33:53;5.53;;;1.88;;
18929;SDS011;43305;52.186;5.598;2022-09-09T12:36:21;4.40;;;2.00;;
18929;SDS011;43305;52.186;5.598;2022-09-09T12:38:58;8.10;;;2.30;;
18929;SDS011;43305;52.186;5.598;2022-09-09T12:41:37;10.40;;;2.70;;
18929;SDS011;43305;52.186;5.598;2022-09-09T12:44:04;6.55;;;2.75;;
18929;SDS011;43305;52.186;5.598;2022-09-09T12:46:38;10.13;;;2.90;;
18929;SDS011;43305;52.186;5.598;2022-09-09T12:49:21;6.82;;;2.65;;
18929;SDS011;43305;52.186;5.598;2022-09-09T12:51:56;10.88;;;3.00;;
18929;SDS011;43305;52.186;5.598;2022-09-09T12:54:26;14.82;;;3.40;;
18929;SDS011;43305;52.186;5.598;2022-09-09T12:56:55;9.55;;;3.38;;
18929;SDS011;43305;52.186;5.598;2022-09-09T12:59:24;10.75;;;3.35;;
18929;SDS011;43305;52.186;5.598;2022-09-09T13:01:56;10.73;;;3.50;;
18929;SDS011;43305;52.186;5.598;2022-09-09T13:04:24;8.60;;;2.90;;
18929;SDS011;43305;52.186;5.598;2022-09-09T13:06:51;7.32;;;2.97;;
18929;SDS011;43305;52.186;5.598;2022-09-09T13:09:18;5.55;;;2.78;;
18929;SDS011;43305;52.186;5.598;2022-09-09T13:11:48;8.43;;;2.70;;
18929;SDS011;43305;52.186;5.598;2022-09-09T13:14:22;6.18;;;2.78;;
18929;SDS011;43305;52.186;5.598;2022-09-09T13:16:56;5.18;;;2.28;;
18929;SDS011;43305;52.186;5.598;2022-09-09T13:19:28;6.65;;;2.20;;
18929;SDS011;43305;52.186;5.598;2022-09-09T13:22:10;8.70;;;2.42;;
18929;SDS011;43305;52.186;5.598;2022-09-09T13:24:39;7.07;;;2.38;;
18929;SDS011;43305;52.186;5.598;2022-09-09T13:27:23;6.90;;;2.30;;
18929;SDS011;43305;52.186;5.598;2022-09-09T13:29:54;6.65;;;2.22;;
18929;SDS011;43305;52.186;5.598;2022-09-09T13:32:22;6.32;;;2.40;;
18929;SDS011;43305;52.186;5.598;2022-09-09T13:34:50;5.45;;;2.10;;
18929;SDS011;43305;52.186;5.598;2022-09-09T13:37:20;5.95;;;2.10;;
18929;SDS011;43305;52.186;5.598;2022-09-09T13:39:51;9.05;;;2.60;;
18929;SDS011;43305;52.186;5.598;2022-09-09T13:42:24;5.22;;;2.45;;
18929;SDS011;43305;52.186;5.598;2022-09-09T13:44:53;5.97;;;2.60;;
18929;SDS011;43305;52.186;5.598;2022-09-09T13:47:22;7.55;;;3.10;;
18929;SDS011;43305;52.186;5.598;2022-09-09T13:49:54;7.30;;;3.03;;
18929;SDS011;43305;52.186;5.598;2022-09-09T13:52:21;6.32;;;2.67;;
18929;SDS011;43305;52.186;5.598;2022-09-09T13:54:48;7.25;;;2.72;;
18929;SDS011;43305;52.186;5.598;2022-09-09T13:57:17;7.00;;;2.40;;
18929;SDS011;43305;52.186;5.598;2022-09-09T13:59:48;6.78;;;2.30;;
18929;SDS011;43305;52.186;5.598;2022-09-09T14:02:15;6.72;;;2.20;;
18929;SDS011;43305;52.186;5.598;2022-09-09T14:04:46;7.15;;;2.70;;
18929;SDS011;43305;52.186;5.598;2022-09-09T14:07:17;6.53;;;2.50;;
18929;SDS011;43305;52.186;5.598;2022-09-09T14:09:45;7.60;;;2.40;;
18929;SDS011;43305;52.186;5.598;2022-09-09T14:12:15;8.40;;;2.47;;
18929;SDS011;43305;52.186;5.598;2022-09-09T14:14:43;6.97;;;2.22;;
18929;SDS011;43305;52.186;5.598;2022-09-09T14:17:11;7.05;;;2.40;;
18929;SDS011;43305;52.186;5.598;2022-09-09T14:19:39;6.22;;;2.10;;
18929;SDS011;43305;52.186;5.598;2022-09-09T14:22:06;6.45;;;2.20;;
18929;SDS011;43305;52.186;5.598;2022-09-09T14:24:35;9.20;;;2.60;;
18929;SDS011;43305;52.186;5.598;2022-09-09T14:27:02;6.47;;;2.45;;
18929;SDS011;43305;52.186;5.598;2022-09-09T14:29:29;5.07;;;2.13;;
18929;SDS011;43305;52.186;5.598;2022-09-09T14:31:58;9.25;;;2.60;;
18929;SDS011;43305;52.186;5.598;2022-09-09T14:34:26;5.72;;;1.88;;
18929;SDS011;43305;52.186;5.598;2022-09-09T14:36:54;7.93;;;2.53;;
18929;SDS011;43305;52.186;5.598;2022-09-09T14:39:23;7.68;;;1.92;;
18929;SDS011;43305;52.186;5.598;2022-09-09T14:41:50;5.30;;;1.63;;
18929;SDS011;43305;52.186;5.598;2022-09-09T14:44:17;4.93;;;2.05;;
18929;SDS011;43305;52.186;5.598;2022-09-09T14:46:43;5.72;;;2.10;;
18929;SDS011;43305;52.186;5.598;2022-09-09T14:49:10;5.13;;;2.00;;
18929;SDS011;43305;52.186;5.598;2022-09-09T14:51:39;5.32;;;1.80;;
18929;SDS011;43305;52.186;5.598;2022-09-09T14:54:06;4.13;;;1.63;;
18929;SDS011;43305;52.186;5.598;2022-09-09T14:56:34;6.38;;;2.10;;
18929;SDS011;43305;52.186;5.598;2022-09-09T14:59:01;7.00;;;2.30;;
18929;SDS011;43305;52.186;5.598;2022-09-09T15:01:29;7.40;;;1.90;;
18929;SDS011;43305;52.186;5.598;2022-09-09T15:04:00;5.97;;;1.90;;
18929;SDS011;43305;52.186;5.598;2022-09-09T15:06:29;6.22;;;2.20;;
18929;SDS011;43305;52.186;5.598;2022-09-09T15:08:59;7.00;;;2.10;;
18929;SDS011;43305;52.186;5.598;2022-09-09T15:11:27;8.10;;;2.10;;
18929;SDS011;43305;52.186;5.598;2022-09-09T15:14:06;5.63;;;2.17;;
18929;SDS011;43305;52.186;5.598;2022-09-09T15:16:37;5.80;;;2.13;;
18929;SDS011;43305;52.186;5.598;2022-09-09T15:19:05;8.57;;;2.53;;
18929;SDS011;43305;52.186;5.598;2022-09-09T15:21:33;4.05;;;1.95;;
18929;SDS011;43305;52.186;5.598;2022-09-09T15:24:02;7.30;;;1.98;;
18929;SDS011;43305;52.186;5.598;2022-09-09T15:26:30;6.30;;;1.80;;
18929;SDS011;43305;52.186;5.598;2022-09-09T15:28:57;13.95;;;3.15;;
18929;SDS011;43305;52.186;5.598;2022-09-09T15:31:25;7.25;;;2.58;;
18929;SDS011;43305;52.186;5.598;2022-09-09T15:33:54;9.57;;;2.70;;
18929;SDS011;43305;52.186;5.598;2022-09-09T15:36:27;8.02;;;2.92;;